sensor_id;sensor_type;location;lat;lon;timestamp;P1;durP1;ratioP1;P2;durP2;ratioP2
31454;SDS011;18084;53.028;8.834;2022-08-01T00:04:02;3.72;;;2.78;;
31454;SDS011;18084;53.028;8.834;2022-08-01T00:06:28;3.30;;;3.00;;
31454;SDS011;18084;53.028;8.834;2022-08-01T00:08:54;3.20;;;2.47;;
31454;SDS011;18084;53.028;8.834;2022-08-01T00:11:20;3.38;;;3.13;;
31454;SDS011;18084;53.028;8.834;2022-08-01T00:16:11;4.55;;;3.50;;
31454;SDS011;18084;53.028;8.834;2022-08-01T00:18:37;3.70;;;3.40;;
31454;SDS011;18084;53.028;8.834;2022-08-01T00:21:03;5.38;;;2.75;;
31454;SDS011;18084;53.028;8.834;2022-08-01T00:23:29;3.58;;;3.28;;
31454;SDS011;18084;53.028;8.834;2022-08-01T00:25:55;5.32;;;3.60;;
31454;SDS011;18084;53.028;8.834;2022-08-01T00:28:21;6.00;;;3.85;;
31454;SDS011;18084;53.028;8.834;2022-08-01T00:30:46;5.07;;;4.68;;
31454;SDS011;18084;53.028;8.834;2022-08-01T00:33:12;7.00;;;5.25;;
31454;SDS011;18084;53.028;8.834;2022-08-01T00:38:03;6.82;;;6.30;;
31454;SDS011;18084;53.028;8.834;2022-08-01T00:42:54;11.77;;;7.70;;
31454;SDS011;18084;53.028;8.834;2022-08-01T00:45:20;10.25;;;8.65;;
31454;SDS011;18084;53.028;8.834;2022-08-01T00:47:46;8.02;;;7.32;;
31454;SDS011;18084;53.028;8.834;2022-08-01T00:52:38;8.05;;;7.35;;
31454;SDS011;18084;53.028;8.834;2022-08-01T00:55:05;8.82;;;7.40;;
31454;SDS011;18084;53.028;8.834;2022-08-01T00:57:31;10.45;;;8.95;;
31454;SDS011;18084;53.028;8.834;2022-08-01T00:59:57;8.63;;;7.72;;
31454;SDS011;18084;53.028;8.834;2022-08-01T01:02:22;9.95;;;8.23;;
31454;SDS011;18084;53.028;8.834;2022-08-01T01:04:48;10.20;;;8.95;;
31454;SDS011;18084;53.028;8.834;2022-08-01T01:12:54;9.98;;;8.98;;
31454;SDS011;18084;53.028;8.834;2022-08-01T01:18:07;12.82;;;9.35;;
31454;SDS011;18084;53.028;8.834;2022-08-01T01:20:38;11.55;;;10.48;;
31454;SDS011;18084;53.028;8.834;2022-08-01T01:26:36;12.05;;;10.30;;
31454;SDS011;18084;53.028;8.834;2022-08-01T01:32:22;11.63;;;9.35;;
31454;SDS011;18084;53.028;8.834;2022-08-01T01:34:58;11.25;;;10.25;;
31454;SDS011;18084;53.028;8.834;2022-08-01T01:37:25;10.93;;;9.93;;
31454;SDS011;18084;53.028;8.834;2022-08-01T01:39:54;11.52;;;10.15;;
31454;SDS011;18084;53.028;8.834;2022-08-01T08:39:03;15.65;;;2.58;;
31454;SDS011;18084;53.028;8.834;2022-08-01T08:42:05;16.58;;;3.20;;
31454;SDS011;18084;53.028;8.834;2022-08-01T08:44:42;15.70;;;3.25;;
31454;SDS011;18084;53.028;8.834;2022-08-01T08:47:13;21.38;;;3.65;;
31454;SDS011;18084;53.028;8.834;2022-08-01T08:49:41;25.92;;;3.78;;
31454;SDS011;18084;53.028;8.834;2022-08-01T08:52:08;18.75;;;2.65;;
31454;SDS011;18084;53.028;8.834;2022-08-01T08:54:40;16.50;;;3.13;;
31454;SDS011;18084;53.028;8.834;2022-08-01T08:57:10;13.43;;;2.55;;
31454;SDS011;18084;53.028;8.834;2022-08-01T09:00:14;15.05;;;3.25;;
31454;SDS011;18084;53.028;8.834;2022-08-01T09:03:11;14.48;;;2.67;;
31454;SDS011;18084;53.028;8.834;2022-08-01T09:08:44;13.68;;;2.72;;
31454;SDS011;18084;53.028;8.834;2022-08-01T09:11:31;8.82;;;2.15;;
31454;SDS011;18084;53.028;8.834;2022-08-01T09:17:04;13.85;;;2.85;;
31454;SDS011;18084;53.028;8.834;2022-08-01T09:19:51;12.23;;;2.60;;
31454;SDS011;18084;53.028;8.834;2022-08-01T09:22:44;12.52;;;2.45;;
31454;SDS011;18084;53.028;8.834;2022-08-01T09:29:21;14.48;;;2.58;;
31454;SDS011;18084;53.028;8.834;2022-08-01T09:38:21;11.82;;;2.20;;
31454;SDS011;18084;53.028;8.834;2022-08-01T09:41:07;15.32;;;3.30;;
31454;SDS011;18084;53.028;8.834;2022-08-01T09:44:03;11.90;;;2.45;;
31454;SDS011;18084;53.028;8.834;2022-08-01T09:47:18;10.77;;;2.85;;
31454;SDS011;18084;53.028;8.834;2022-08-01T10:44:03;11.38;;;2.80;;
31454;SDS011;18084;53.028;8.834;2022-08-01T10:46:30;7.97;;;2.03;;
31454;SDS011;18084;53.028;8.834;2022-08-01T10:51:29;12.18;;;2.25;;
31454;SDS011;18084;53.028;8.834;2022-08-01T10:53:55;22.08;;;2.10;;
31454;SDS011;18084;53.028;8.834;2022-08-01T10:56:22;12.63;;;2.38;;
31454;SDS011;18084;53.028;8.834;2022-08-01T10:58:48;14.07;;;2.42;;
31454;SDS011;18084;53.028;8.834;2022-08-01T11:01:21;10.32;;;2.45;;
31454;SDS011;18084;53.028;8.834;2022-08-01T11:03:57;11.30;;;1.95;;
31454;SDS011;18084;53.028;8.834;2022-08-01T11:09:28;10.10;;;2.45;;
31454;SDS011;18084;53.028;8.834;2022-08-01T11:14:43;11.18;;;2.75;;
31454;SDS011;18084;53.028;8.834;2022-08-01T11:20:15;10.07;;;2.88;;
31454;SDS011;18084;53.028;8.834;2022-08-01T11:25:25;15.30;;;2.50;;
31454;SDS011;18084;53.028;8.834;2022-08-01T11:28:26;13.65;;;1.98;;
31454;SDS011;18084;53.028;8.834;2022-08-01T11:30:46;11.25;;;2.13;;
31454;SDS011;18084;53.028;8.834;2022-08-01T11:33:14;10.10;;;2.25;;
31454;SDS011;18084;53.028;8.834;2022-08-01T11:39:10;11.02;;;2.15;;
31454;SDS011;18084;53.028;8.834;2022-08-01T11:41:36;10.18;;;2.13;;
31454;SDS011;18084;53.028;8.834;2022-08-01T11:44:03;8.15;;;1.52;;
31454;SDS011;18084;53.028;8.834;2022-08-01T11:46:48;7.13;;;2.10;;
31454;SDS011;18084;53.028;8.834;2022-08-01T11:51:59;13.23;;;2.63;;
31454;SDS011;18084;53.028;8.834;2022-08-01T11:54:34;7.28;;;2.00;;
31454;SDS011;18084;53.028;8.834;2022-08-01T11:57:08;10.50;;;2.13;;
31454;SDS011;18084;53.028;8.834;2022-08-01T11:59:37;7.82;;;1.92;;
31454;SDS011;18084;53.028;8.834;2022-08-01T12:02:04;11.40;;;2.10;;
31454;SDS011;18084;53.028;8.834;2022-08-01T12:07:12;11.20;;;2.72;;
31454;SDS011;18084;53.028;8.834;2022-08-01T12:09:41;7.95;;;1.90;;
31454;SDS011;18084;53.028;8.834;2022-08-01T12:12:06;12.82;;;2.60;;
31454;SDS011;18084;53.028;8.834;2022-08-01T12:14:32;14.50;;;2.55;;
31454;SDS011;18084;53.028;8.834;2022-08-01T12:16:58;12.50;;;3.13;;
31454;SDS011;18084;53.028;8.834;2022-08-01T12:19:23;13.98;;;2.33;;
31454;SDS011;18084;53.028;8.834;2022-08-01T12:24:38;8.27;;;2.25;;
31454;SDS011;18084;53.028;8.834;2022-08-01T12:27:06;8.25;;;1.90;;
31454;SDS011;18084;53.028;8.834;2022-08-01T12:29:33;5.38;;;1.70;;
31454;SDS011;18084;53.028;8.834;2022-08-01T12:32:00;15.10;;;2.65;;
31454;SDS011;18084;53.028;8.834;2022-08-01T12:34:27;10.07;;;2.72;;
31454;SDS011;18084;53.028;8.834;2022-08-01T12:36:57;15.00;;;2.45;;
31454;SDS011;18084;53.028;8.834;2022-08-01T12:39:34;5.82;;;1.85;;
31454;SDS011;18084;53.028;8.834;2022-08-01T12:42:00;8.33;;;2.17;;
31454;SDS011;18084;53.028;8.834;2022-08-01T12:44:26;8.75;;;1.83;;
31454;SDS011;18084;53.028;8.834;2022-08-01T12:46:54;11.13;;;2.00;;
31454;SDS011;18084;53.028;8.834;2022-08-01T12:49:20;10.73;;;2.15;;
31454;SDS011;18084;53.028;8.834;2022-08-01T12:51:47;12.05;;;2.55;;
31454;SDS011;18084;53.028;8.834;2022-08-01T12:54:13;6.57;;;2.00;;
31454;SDS011;18084;53.028;8.834;2022-08-01T12:56:39;9.57;;;2.33;;
31454;SDS011;18084;53.028;8.834;2022-08-01T12:59:23;9.52;;;1.77;;
31454;SDS011;18084;53.028;8.834;2022-08-01T13:01:54;6.70;;;2.03;;
31454;SDS011;18084;53.028;8.834;2022-08-01T13:04:20;5.93;;;1.70;;
31454;SDS011;18084;53.028;8.834;2022-08-01T13:06:47;9.10;;;1.95;;
31454;SDS011;18084;53.028;8.834;2022-08-01T13:09:17;13.95;;;1.92;;
31454;SDS011;18084;53.028;8.834;2022-08-01T13:11:43;6.85;;;1.25;;
31454;SDS011;18084;53.028;8.834;2022-08-01T13:14:09;10.32;;;1.58;;
31454;SDS011;18084;53.028;8.834;2022-08-01T13:16:47;7.18;;;1.45;;
31454;SDS011;18084;53.028;8.834;2022-08-01T13:19:13;12.88;;;2.20;;
31454;SDS011;18084;53.028;8.834;2022-08-01T13:22:10;7.72;;;1.52;;
31454;SDS011;18084;53.028;8.834;2022-08-01T13:24:36;8.70;;;1.85;;
31454;SDS011;18084;53.028;8.834;2022-08-01T13:27:02;8.85;;;1.77;;
31454;SDS011;18084;53.028;8.834;2022-08-01T13:29:33;11.23;;;1.88;;
31454;SDS011;18084;53.028;8.834;2022-08-01T13:32:13;10.55;;;1.70;;
31454;SDS011;18084;53.028;8.834;2022-08-01T13:34:43;7.72;;;2.00;;
31454;SDS011;18084;53.028;8.834;2022-08-01T13:37:08;5.25;;;1.67;;
31454;SDS011;18084;53.028;8.834;2022-08-01T13:39:34;5.70;;;1.70;;
31454;SDS011;18084;53.028;8.834;2022-08-01T13:42:06;8.68;;;2.38;;
31454;SDS011;18084;53.028;8.834;2022-08-01T13:44:32;10.63;;;1.90;;
31454;SDS011;18084;53.028;8.834;2022-08-01T13:46:58;9.20;;;1.77;;
31454;SDS011;18084;53.028;8.834;2022-08-01T13:49:24;6.90;;;1.92;;
31454;SDS011;18084;53.028;8.834;2022-08-01T13:51:49;12.75;;;2.22;;
31454;SDS011;18084;53.028;8.834;2022-08-01T13:54:15;8.45;;;2.28;;
31454;SDS011;18084;53.028;8.834;2022-08-01T13:56:41;13.30;;;1.85;;
31454;SDS011;18084;53.028;8.834;2022-08-01T13:59:07;9.50;;;2.13;;
31454;SDS011;18084;53.028;8.834;2022-08-01T14:01:33;10.45;;;2.40;;
31454;SDS011;18084;53.028;8.834;2022-08-01T14:03:59;7.38;;;1.67;;
31454;SDS011;18084;53.028;8.834;2022-08-01T14:06:24;10.18;;;1.85;;
31454;SDS011;18084;53.028;8.834;2022-08-01T14:08:50;7.15;;;2.15;;
31454;SDS011;18084;53.028;8.834;2022-08-01T14:11:16;12.05;;;2.00;;
31454;SDS011;18084;53.028;8.834;2022-08-01T14:13:41;10.10;;;2.63;;
31454;SDS011;18084;53.028;8.834;2022-08-01T14:16:07;9.95;;;2.10;;
31454;SDS011;18084;53.028;8.834;2022-08-01T14:18:33;9.70;;;2.65;;
31454;SDS011;18084;53.028;8.834;2022-08-01T14:20:59;9.88;;;2.03;;
31454;SDS011;18084;53.028;8.834;2022-08-01T14:23:25;5.80;;;1.50;;
31454;SDS011;18084;53.028;8.834;2022-08-01T14:25:51;4.95;;;1.58;;
31454;SDS011;18084;53.028;8.834;2022-08-01T14:28:17;9.95;;;1.85;;
31454;SDS011;18084;53.028;8.834;2022-08-01T14:30:43;7.68;;;2.15;;
31454;SDS011;18084;53.028;8.834;2022-08-01T14:33:09;9.32;;;2.30;;
31454;SDS011;18084;53.028;8.834;2022-08-01T14:35:35;11.10;;;1.88;;
31454;SDS011;18084;53.028;8.834;2022-08-01T14:38:01;12.60;;;1.70;;
31454;SDS011;18084;53.028;8.834;2022-08-01T14:40:27;7.00;;;1.90;;
31454;SDS011;18084;53.028;8.834;2022-08-01T14:42:53;7.35;;;1.60;;
31454;SDS011;18084;53.028;8.834;2022-08-01T14:45:19;9.40;;;2.15;;
31454;SDS011;18084;53.028;8.834;2022-08-01T14:47:44;10.43;;;1.80;;
31454;SDS011;18084;53.028;8.834;2022-08-01T14:50:11;5.47;;;1.40;;
31454;SDS011;18084;53.028;8.834;2022-08-01T14:52:38;9.88;;;2.10;;
31454;SDS011;18084;53.028;8.834;2022-08-01T14:55:05;9.63;;;1.80;;
31454;SDS011;18084;53.028;8.834;2022-08-01T14:57:34;10.13;;;1.92;;
31454;SDS011;18084;53.028;8.834;2022-08-01T15:00:01;6.70;;;1.77;;
31454;SDS011;18084;53.028;8.834;2022-08-01T15:02:28;10.07;;;1.73;;
31454;SDS011;18084;53.028;8.834;2022-08-01T15:04:54;6.97;;;1.77;;
31454;SDS011;18084;53.028;8.834;2022-08-01T15:07:19;11.32;;;1.85;;
31454;SDS011;18084;53.028;8.834;2022-08-01T15:09:45;10.50;;;1.60;;
31454;SDS011;18084;53.028;8.834;2022-08-01T15:12:10;8.43;;;1.95;;
31454;SDS011;18084;53.028;8.834;2022-08-01T15:14:37;3.13;;;1.17;;
31454;SDS011;18084;53.028;8.834;2022-08-01T15:17:18;12.95;;;1.75;;
31454;SDS011;18084;53.028;8.834;2022-08-01T15:19:50;8.85;;;2.28;;
31454;SDS011;18084;53.028;8.834;2022-08-01T15:22:17;6.55;;;1.70;;
31454;SDS011;18084;53.028;8.834;2022-08-01T15:24:43;16.00;;;1.98;;
31454;SDS011;18084;53.028;8.834;2022-08-01T15:27:09;10.32;;;1.90;;
31454;SDS011;18084;53.028;8.834;2022-08-01T15:29:35;13.30;;;2.47;;
31454;SDS011;18084;53.028;8.834;2022-08-01T15:32:02;6.45;;;1.60;;
31454;SDS011;18084;53.028;8.834;2022-08-01T15:34:29;6.90;;;2.03;;
31454;SDS011;18084;53.028;8.834;2022-08-01T15:36:55;10.88;;;2.17;;
31454;SDS011;18084;53.028;8.834;2022-08-01T15:39:21;7.10;;;1.80;;
31454;SDS011;18084;53.028;8.834;2022-08-01T15:41:47;9.45;;;2.03;;
31454;SDS011;18084;53.028;8.834;2022-08-01T15:44:13;4.43;;;1.50;;
31454;SDS011;18084;53.028;8.834;2022-08-01T15:46:39;12.98;;;3.03;;
31454;SDS011;18084;53.028;8.834;2022-08-01T15:49:04;10.48;;;1.55;;
31454;SDS011;18084;53.028;8.834;2022-08-01T15:51:31;5.80;;;1.50;;
31454;SDS011;18084;53.028;8.834;2022-08-01T15:53:57;14.50;;;2.35;;
31454;SDS011;18084;53.028;8.834;2022-08-01T15:56:23;7.10;;;2.40;;
31454;SDS011;18084;53.028;8.834;2022-08-01T15:58:49;14.15;;;2.20;;
31454;SDS011;18084;53.028;8.834;2022-08-01T16:01:15;8.68;;;2.15;;
31454;SDS011;18084;53.028;8.834;2022-08-01T16:03:40;10.15;;;1.90;;
31454;SDS011;18084;53.028;8.834;2022-08-01T16:06:06;5.35;;;1.65;;
31454;SDS011;18084;53.028;8.834;2022-08-01T16:08:32;8.38;;;2.00;;
31454;SDS011;18084;53.028;8.834;2022-08-01T16:10:58;6.70;;;1.77;;
31454;SDS011;18084;53.028;8.834;2022-08-01T16:13:24;10.65;;;1.95;;
31454;SDS011;18084;53.028;8.834;2022-08-01T16:15:49;6.65;;;2.13;;
31454;SDS011;18084;53.028;8.834;2022-08-01T16:18:15;13.98;;;2.95;;
31454;SDS011;18084;53.028;8.834;2022-08-01T16:20:41;8.57;;;2.38;;
31454;SDS011;18084;53.028;8.834;2022-08-01T16:23:07;7.75;;;1.88;;
31454;SDS011;18084;53.028;8.834;2022-08-01T16:25:33;5.90;;;1.85;;
31454;SDS011;18084;53.028;8.834;2022-08-01T16:27:59;9.80;;;2.83;;
31454;SDS011;18084;53.028;8.834;2022-08-01T16:30:24;6.85;;;2.00;;
31454;SDS011;18084;53.028;8.834;2022-08-01T16:32:50;6.35;;;2.03;;
31454;SDS011;18084;53.028;8.834;2022-08-01T16:35:16;10.27;;;2.70;;
31454;SDS011;18084;53.028;8.834;2022-08-01T16:37:41;7.15;;;1.90;;
31454;SDS011;18084;53.028;8.834;2022-08-01T16:40:07;12.50;;;2.33;;
31454;SDS011;18084;53.028;8.834;2022-08-01T16:42:33;9.98;;;1.85;;
31454;SDS011;18084;53.028;8.834;2022-08-01T16:44:58;8.48;;;1.83;;
31454;SDS011;18084;53.028;8.834;2022-08-01T16:47:25;11.30;;;1.88;;
31454;SDS011;18084;53.028;8.834;2022-08-01T16:49:51;6.35;;;1.60;;
31454;SDS011;18084;53.028;8.834;2022-08-01T16:52:17;4.97;;;1.73;;
31454;SDS011;18084;53.028;8.834;2022-08-01T17:02:25;11.45;;;2.00;;
31454;SDS011;18084;53.028;8.834;2022-08-01T17:04:51;9.23;;;1.92;;
31454;SDS011;18084;53.028;8.834;2022-08-01T17:07:16;10.10;;;1.98;;
31454;SDS011;18084;53.028;8.834;2022-08-01T17:09:42;6.32;;;1.98;;
31454;SDS011;18084;53.028;8.834;2022-08-01T17:12:08;8.65;;;1.63;;
31454;SDS011;18084;53.028;8.834;2022-08-01T17:14:34;8.60;;;2.25;;
31454;SDS011;18084;53.028;8.834;2022-08-01T17:17:03;6.35;;;1.90;;
31454;SDS011;18084;53.028;8.834;2022-08-01T17:19:30;11.27;;;1.83;;
31454;SDS011;18084;53.028;8.834;2022-08-01T17:21:55;8.43;;;2.15;;
31454;SDS011;18084;53.028;8.834;2022-08-01T17:24:21;15.38;;;2.00;;
31454;SDS011;18084;53.028;8.834;2022-08-01T17:26:46;15.07;;;2.35;;
31454;SDS011;18084;53.028;8.834;2022-08-01T17:29:12;7.18;;;1.70;;
31454;SDS011;18084;53.028;8.834;2022-08-01T17:31:37;11.43;;;2.03;;
31454;SDS011;18084;53.028;8.834;2022-08-01T17:34:06;5.55;;;1.80;;
31454;SDS011;18084;53.028;8.834;2022-08-01T17:36:49;7.15;;;1.83;;
31454;SDS011;18084;53.028;8.834;2022-08-01T17:39:15;8.52;;;2.17;;
31454;SDS011;18084;53.028;8.834;2022-08-01T17:41:41;9.88;;;2.40;;
31454;SDS011;18084;53.028;8.834;2022-08-01T17:46:32;9.60;;;2.50;;
31454;SDS011;18084;53.028;8.834;2022-08-01T17:48:58;12.15;;;2.13;;
31454;SDS011;18084;53.028;8.834;2022-08-01T17:51:25;11.43;;;2.33;;
31454;SDS011;18084;53.028;8.834;2022-08-01T17:53:54;9.50;;;1.88;;
31454;SDS011;18084;53.028;8.834;2022-08-01T17:56:20;9.50;;;1.70;;
31454;SDS011;18084;53.028;8.834;2022-08-01T18:01:11;9.75;;;2.10;;
31454;SDS011;18084;53.028;8.834;2022-08-01T18:03:37;15.15;;;2.38;;
31454;SDS011;18084;53.028;8.834;2022-08-01T18:06:03;14.38;;;2.60;;
31454;SDS011;18084;53.028;8.834;2022-08-01T18:08:28;11.02;;;2.40;;
31454;SDS011;18084;53.028;8.834;2022-08-01T18:10:54;12.48;;;2.00;;
31454;SDS011;18084;53.028;8.834;2022-08-01T18:13:20;12.10;;;2.47;;
31454;SDS011;18084;53.028;8.834;2022-08-01T18:15:46;11.52;;;2.22;;
31454;SDS011;18084;53.028;8.834;2022-08-01T18:18:11;8.73;;;2.47;;
31454;SDS011;18084;53.028;8.834;2022-08-01T18:20:43;13.15;;;2.17;;
31454;SDS011;18084;53.028;8.834;2022-08-01T18:23:09;10.13;;;2.40;;
31454;SDS011;18084;53.028;8.834;2022-08-01T18:25:35;6.57;;;2.22;;
31454;SDS011;18084;53.028;8.834;2022-08-01T18:28:01;11.02;;;2.97;;
31454;SDS011;18084;53.028;8.834;2022-08-01T18:30:27;9.35;;;2.30;;
31454;SDS011;18084;53.028;8.834;2022-08-01T18:35:20;6.85;;;2.15;;
31454;SDS011;18084;53.028;8.834;2022-08-01T18:37:46;10.93;;;2.60;;
31454;SDS011;18084;53.028;8.834;2022-08-01T18:42:40;9.10;;;2.28;;
31454;SDS011;18084;53.028;8.834;2022-08-01T18:45:07;9.25;;;2.38;;
31454;SDS011;18084;53.028;8.834;2022-08-01T18:49:58;13.93;;;2.58;;
31454;SDS011;18084;53.028;8.834;2022-08-01T18:54:50;14.52;;;3.33;;
31454;SDS011;18084;53.028;8.834;2022-08-01T18:59:42;11.30;;;2.22;;
31454;SDS011;18084;53.028;8.834;2022-08-01T19:04:33;5.32;;;2.08;;
31454;SDS011;18084;53.028;8.834;2022-08-01T19:09:24;11.15;;;2.78;;
31454;SDS011;18084;53.028;8.834;2022-08-01T19:14:15;8.60;;;2.28;;
31454;SDS011;18084;53.028;8.834;2022-08-01T19:19:06;11.57;;;3.08;;
31454;SDS011;18084;53.028;8.834;2022-08-01T19:21:33;9.20;;;2.55;;
31454;SDS011;18084;53.028;8.834;2022-08-01T19:23:59;5.88;;;2.85;;
31454;SDS011;18084;53.028;8.834;2022-08-01T19:26:45;10.02;;;2.38;;
31454;SDS011;18084;53.028;8.834;2022-08-01T19:29:14;9.80;;;3.03;;
